Time;durP1;ratioP1;P1;durP2;ratioP2;P2;SDS_P1;SDS_P2;PMS_P1;PMS_P2;Temp;Humidity;BMP_temperature;BMP_pressure;BME280_temperature;BME280_humidity;BME280_pressure;Samples;Min_cycle;Max_cycle;Signal;HPM_P1;HPM_P2
2021/04/07 00:02:06;;;;;;;1.10;0.30;;;;;;;;;;5128048;27;20015;-51
2021/04/07 00:04:32;;;;;;;3.50;0.80;;;;;;;;;;5135117;27;20396;-51
2021/04/07 00:06:58;;;;;;;1.30;0.70;;;;;;;;;;5129916;27;20018;-49
2021/04/07 00:09:24;;;;;;;2.00;0.60;;;;;;;;;;5115170;28;20423;-49
2021/04/07 00:11:49;;;;;;;1.37;0.53;;;;;;;;;;5112070;27;20085;-48
2021/04/07 00:14:15;;;;;;;2.73;0.97;;;;;;;;;;5123594;27;20466;-51
2021/04/07 00:16:40;;;;;;;2.27;0.47;;;;;;;;;;5121632;27;20016;-52
2021/04/07 00:19:06;;;;;;;0.97;0.60;;;;;;;;;;5131033;27;20022;-50
2021/04/07 00:21:32;;;;;;;2.87;0.80;;;;;;;;;;5131258;27;20098;-49
2021/04/07 00:23:57;;;;;;;2.30;1.27;;;;;;;;;;5135379;27;20513;-49
2021/04/07 00:26:22;;;;;;;0.97;0.30;;;;;;;;;;5127239;27;20096;-48
2021/04/07 00:28:47;;;;;;;2.50;0.40;;;;;;;;;;5135397;27;20467;-49
2021/04/07 00:31:12;;;;;;;0.97;0.40;;;;;;;;;;5132509;27;20199;-49
2021/04/07 00:33:38;;;;;;;2.57;0.80;;;;;;;;;;5130256;27;20083;-48
2021/04/07 00:36:03;;;;;;;1.30;0.77;;;;;;;;;;5115177;27;20023;-47
2021/04/07 00:38:28;;;;;;;3.60;1.50;;;;;;;;;;5125863;27;20068;-51
2021/04/07 00:40:53;;;;;;;1.93;0.50;;;;;;;;;;5131802;27;20111;-52
2021/04/07 00:43:18;;;;;;;1.03;0.50;;;;;;;;;;5133679;27;20047;-49
2021/04/07 00:45:44;;;;;;;4.20;1.03;;;;;;;;;;5134421;27;20053;-52
2021/04/07 00:48:09;;;;;;;2.40;1.43;;;;;;;;;;5135115;27;20023;-49
2021/04/07 00:50:35;;;;;;;2.93;0.80;;;;;;;;;;5134137;27;20047;-48
2021/04/07 00:53:00;;;;;;;1.37;0.67;;;;;;;;;;5131286;27;20038;-49
2021/04/07 00:55:28;;;;;;;3.13;1.17;;;;;;;;;;5133036;27;20504;-53
2021/04/07 00:57:53;;;;;;;0.40;0.23;;;;;;;;;;5134324;27;20023;-49
2021/04/07 01:00:19;;;;;;;0.80;0.47;;;;;;;;;;5134693;27;20076;-52
2021/04/07 01:02:45;;;;;;;1.73;0.90;;;;;;;;;;5131175;27;20347;-51
2021/04/07 01:05:11;;;;;;;0.83;0.30;;;;;;;;;;5129313;27;20467;-53
2021/04/07 01:07:36;;;;;;;2.30;1.10;;;;;;;;;;5115738;27;20090;-46
2021/04/07 01:10:03;;;;;;;2.53;1.00;;;;;;;;;;5129292;27;20019;-50
2021/04/07 01:12:28;;;;;;;3.77;1.00;;;;;;;;;;5111461;28;20103;-49
2021/04/07 01:14:54;;;;;;;1.00;0.40;;;;;;;;;;5114004;28;20043;-48
2021/04/07 01:17:19;;;;;;;1.33;0.30;;;;;;;;;;5117310;27;20038;-50
2021/04/07 01:19:45;;;;;;;3.40;0.87;;;;;;;;;;5114194;27;20467;-48
2021/04/07 01:22:11;;;;;;;1.73;0.70;;;;;;;;;;5112725;27;20015;-51
2021/04/07 01:24:36;;;;;;;2.03;0.47;;;;;;;;;;5129671;27;20056;-46
2021/04/07 01:27:02;;;;;;;1.37;0.60;;;;;;;;;;5124757;27;20019;-50
2021/04/07 01:29:27;;;;;;;1.57;0.40;;;;;;;;;;5134220;27;20067;-48
2021/04/07 01:31:55;;;;;;;1.27;0.50;;;;;;;;;;5131439;27;20105;-53
2021/04/07 01:34:28;;;;;;;2.07;0.60;;;;;;;;;;5132236;27;20478;-51
2021/04/07 01:36:53;;;;;;;2.00;0.70;;;;;;;;;;5134122;27;20023;-46
2021/04/07 01:39:20;;;;;;;4.27;0.63;;;;;;;;;;5133355;27;20027;-49
2021/04/07 01:41:45;;;;;;;6.33;0.83;;;;;;;;;;5124970;27;20030;-49
2021/04/07 01:44:11;;;;;;;2.60;0.87;;;;;;;;;;5134297;27;20027;-48
2021/04/07 01:46:37;;;;;;;2.90;0.90;;;;;;;;;;5119916;27;20030;-51
2021/04/07 01:49:03;;;;;;;2.27;0.57;;;;;;;;;;5133278;27;20019;-49
2021/04/07 01:51:30;;;;;;;4.77;0.57;;;;;;;;;;5120245;27;20047;-51
2021/04/07 01:53:59;;;;;;;2.33;0.57;;;;;;;;;;5115219;27;20046;-53
2021/04/07 01:56:24;;;;;;;4.23;1.17;;;;;;;;;;5116161;27;20065;-51
2021/04/07 01:58:59;;;;;;;2.03;0.50;;;;;;;;;;5129074;27;20027;-49
2021/04/07 02:01:25;;;;;;;;;;;;;;;;;;5121912;27;20038;-50
2021/04/07 02:03:50;;;;;;;1.48;1.08;;;;;;;;;;5133391;27;19903;-51
2021/04/07 02:06:15;;;;;;;1.83;0.40;;;;;;;;;;5122811;27;20026;-50
2021/04/07 02:08:40;;;;;;;1.73;0.67;;;;;;;;;;5113296;28;20016;-51
2021/04/07 02:11:06;;;;;;;3.77;0.70;;;;;;;;;;5116446;27;20577;-51
2021/04/07 02:13:31;;;;;;;2.10;0.63;;;;;;;;;;5120288;27;20016;-48
2021/04/07 02:15:56;;;;;;;2.73;0.93;;;;;;;;;;5112933;28;20031;-50
2021/04/07 02:18:21;;;;;;;2.30;0.87;;;;;;;;;;5113227;28;20455;-53
2021/04/07 02:20:46;;;;;;;0.20;0.10;;;;;;;;;;5115515;27;20019;-49
2021/04/07 02:23:12;;;;;;;2.27;1.13;;;;;;;;;;5122918;27;20028;-53
2021/04/07 02:25:37;;;;;;;2.20;1.03;;;;;;;;;;5125816;27;20019;-51
2021/04/07 02:28:02;;;;;;;0.93;0.50;;;;;;;;;;5116664;27;20166;-50
2021/04/07 02:30:27;;;;;;;2.97;0.90;;;;;;;;;;5114366;28;20019;-48
2021/04/07 02:32:53;;;;;;;0.80;0.40;;;;;;;;;;5130386;28;20473;-52
2021/04/07 02:35:18;;;;;;;1.80;0.40;;;;;;;;;;5133360;28;20437;-52
2021/04/07 02:37:43;;;;;;;1.00;0.80;;;;;;;;;;5124461;28;20437;-53
2021/04/07 02:40:09;;;;;;;1.40;0.43;;;;;;;;;;5114647;28;20031;-48
2021/04/07 02:42:34;;;;;;;0.63;0.33;;;;;;;;;;5115381;27;20504;-48
2021/04/07 02:44:59;;;;;;;5.07;1.33;;;;;;;;;;5112541;28;20011;-49
2021/04/07 02:47:24;;;;;;;3.17;1.27;;;;;;;;;;5112869;28;20034;-48
2021/04/07 02:49:50;;;;;;;2.23;0.50;;;;;;;;;;5112289;28;20412;-49
2021/04/07 02:52:15;;;;;;;1.67;0.60;;;;;;;;;;5110025;28;20060;-54
2021/04/07 02:54:40;;;;;;;2.50;1.00;;;;;;;;;;5112774;28;20050;-50
2021/04/07 02:57:06;;;;;;;1.53;0.70;;;;;;;;;;5124771;28;20053;-52
2021/04/07 02:59:31;;;;;;;2.37;0.70;;;;;;;;;;5133222;27;20019;-48
2021/04/07 03:01:56;;;;;;;8.17;0.63;;;;;;;;;;5116775;27;20016;-51
2021/04/07 03:04:22;;;;;;;2.50;0.80;;;;;;;;;;5114268;28;20366;-49
2021/04/07 03:06:47;;;;;;;1.30;0.50;;;;;;;;;;5131348;28;20015;-48
2021/04/07 03:09:12;;;;;;;1.27;0.50;;;;;;;;;;5115158;28;20023;-48
2021/04/07 03:11:37;;;;;;;3.23;0.80;;;;;;;;;;5109418;28;20046;-53
2021/04/07 03:14:03;;;;;;;0.90;0.40;;;;;;;;;;5116332;28;20031;-50
2021/04/07 03:16:28;;;;;;;3.17;1.93;;;;;;;;;;5116501;28;20019;-52
2021/04/07 03:18:53;;;;;;;3.17;1.13;;;;;;;;;;5116193;28;20015;-48
2021/04/07 03:21:19;;;;;;;2.77;0.77;;;;;;;;;;5120854;27;20081;-52
2021/04/07 03:23:44;;;;;;;2.87;1.10;;;;;;;;;;5127524;27;20019;-49
2021/04/07 03:26:09;;;;;;;0.90;0.67;;;;;;;;;;5136320;27;20023;-50
2021/04/07 03:28:34;;;;;;;3.37;1.20;;;;;;;;;;5135764;27;20023;-49
2021/04/07 03:31:00;;;;;;;5.13;1.30;;;;;;;;;;5129341;27;20019;-48
2021/04/07 03:33:28;;;;;;;2.40;1.10;;;;;;;;;;5115218;28;20054;-47
2021/04/07 03:35:54;;;;;;;1.00;0.50;;;;;;;;;;5116126;27;20034;-52
2021/04/07 03:38:19;;;;;;;1.00;0.63;;;;;;;;;;5116084;28;20019;-51
2021/04/07 03:40:45;;;;;;;1.40;1.13;;;;;;;;;;5117133;27;20084;-48
2021/04/07 03:43:11;;;;;;;1.43;1.00;;;;;;;;;;5128871;27;20027;-49
2021/04/07 03:45:40;;;;;;;2.33;1.37;;;;;;;;;;5115927;28;20030;-48
2021/04/07 03:48:07;;;;;;;2.33;1.10;;;;;;;;;;5115748;28;20118;-47
2021/04/07 03:50:33;;;;;;;4.20;2.17;;;;;;;;;;5129635;27;20491;-50
2021/04/07 03:52:58;;;;;;;4.10;1.40;;;;;;;;;;5133038;27;20027;-50
2021/04/07 03:55:23;;;;;;;4.27;2.30;;;;;;;;;;5134311;27;20034;-51
2021/04/07 03:57:48;;;;;;;1.93;1.20;;;;;;;;;;5119034;27;20024;-51
2021/04/07 04:00:14;;;;;;;2.10;0.70;;;;;;;;;;5126579;27;20027;-46
2021/04/07 04:02:39;;;;;;;3.60;1.97;;;;;;;;;;5133206;27;20015;-47
2021/04/07 04:05:04;;;;;;;5.80;1.67;;;;;;;;;;5130202;27;20020;-50
2021/04/07 04:07:30;;;;;;;3.10;1.77;;;;;;;;;;5115375;28;20360;-48
2021/04/07 04:09:55;;;;;;;3.53;1.83;;;;;;;;;;5115288;27;20051;-51
2021/04/07 04:12:20;;;;;;;4.37;1.77;;;;;;;;;;5112498;28;20015;-53
2021/04/07 04:14:45;;;;;;;2.83;1.33;;;;;;;;;;5115466;27;20509;-48
2021/04/07 04:17:11;;;;;;;3.33;1.93;;;;;;;;;;5115397;28;20467;-53
2021/04/07 04:19:36;;;;;;;2.13;0.90;;;;;;;;;;5119786;27;20031;-50
2021/04/07 04:22:04;;;;;;;3.63;1.60;;;;;;;;;;5131724;27;20102;-53
2021/04/07 04:24:29;;;;;;;2.60;1.93;;;;;;;;;;5129595;27;20123;-52
2021/04/07 04:26:54;;;;;;;4.57;2.30;;;;;;;;;;5125240;27;20101;-52
2021/04/07 04:29:19;;;;;;;2.50;1.70;;;;;;;;;;5132749;27;20110;-50
2021/04/07 04:31:44;;;;;;;3.40;1.87;;;;;;;;;;5118723;27;20019;-51
2021/04/07 04:34:10;;;;;;;2.93;1.20;;;;;;;;;;5119575;27;20381;-53
2021/04/07 04:36:35;;;;;;;7.67;3.30;;;;;;;;;;5134412;27;20488;-50
2021/04/07 04:39:00;;;;;;;4.73;2.40;;;;;;;;;;5134463;27;20513;-49
2021/04/07 04:41:25;;;;;;;4.43;1.23;;;;;;;;;;5128102;27;20019;-46
2021/04/07 04:43:50;;;;;;;4.43;1.83;;;;;;;;;;5134888;27;20060;-53
2021/04/07 04:46:16;;;;;;;3.10;1.30;;;;;;;;;;5126303;27;20211;-52
2021/04/07 04:48:41;;;;;;;4.90;2.87;;;;;;;;;;5120630;27;20098;-49
2021/04/07 04:51:06;;;;;;;1.83;1.37;;;;;;;;;;5129889;27;20390;-50
2021/04/07 04:53:31;;;;;;;6.20;3.60;;;;;;;;;;5134853;27;20153;-51
2021/04/07 04:55:57;;;;;;;4.77;1.60;;;;;;;;;;5134147;27;20088;-51
2021/04/07 04:58:22;;;;;;;3.47;1.40;;;;;;;;;;5134945;27;20102;-54
2021/04/07 05:00:47;;;;;;;1.73;1.33;;;;;;;;;;5128116;27;20011;-50
2021/04/07 05:03:12;;;;;;;5.70;2.90;;;;;;;;;;5132952;27;20191;-46
2021/04/07 05:05:37;;;;;;;3.20;1.70;;;;;;;;;;5134161;27;20019;-52
2021/04/07 05:08:03;;;;;;;3.30;2.10;;;;;;;;;;5134042;27;20019;-49
2021/04/07 05:10:28;;;;;;;3.83;2.20;;;;;;;;;;5133739;27;20027;-50
2021/04/07 05:12:53;;;;;;;3.43;1.73;;;;;;;;;;5131421;27;20019;-50
2021/04/07 05:15:18;;;;;;;2.17;1.40;;;;;;;;;;5117479;27;20023;-48
2021/04/07 05:17:44;;;;;;;7.77;2.47;;;;;;;;;;5125736;27;20424;-47
2021/04/07 05:20:10;;;;;;;1.97;1.30;;;;;;;;;;5126186;27;20022;-52
2021/04/07 05:22:35;;;;;;;2.10;1.53;;;;;;;;;;5110706;28;20050;-54
2021/04/07 05:25:00;;;;;;;5.67;1.70;;;;;;;;;;5120771;27;20501;-52
2021/04/07 05:27:25;;;;;;;1.50;1.17;;;;;;;;;;5130577;27;20101;-52
2021/04/07 05:29:51;;;;;;;3.50;2.33;;;;;;;;;;5118696;27;20011;-52
2021/04/07 05:32:16;;;;;;;6.60;2.03;;;;;;;;;;5130592;27;20023;-49
2021/04/07 05:34:41;;;;;;;2.20;1.70;;;;;;;;;;5128176;27;20376;-52
2021/04/07 05:37:06;;;;;;;4.07;2.13;;;;;;;;;;5113287;28;20015;-47
2021/04/07 05:39:31;;;;;;;1.80;1.27;;;;;;;;;;5115668;27;20053;-51
2021/04/07 05:41:57;;;;;;;4.60;3.60;;;;;;;;;;5116945;27;20496;-49
2021/04/07 05:44:22;;;;;;;3.23;1.77;;;;;;;;;;5113628;27;20463;-48
2021/04/07 05:46:47;;;;;;;3.17;1.80;;;;;;;;;;5113355;28;20026;-52
2021/04/07 05:49:13;;;;;;;3.33;1.13;;;;;;;;;;5130151;27;20114;-50
2021/04/07 05:51:38;;;;;;;4.50;2.20;;;;;;;;;;5130429;27;20142;-46
2021/04/07 05:54:03;;;;;;;2.77;1.50;;;;;;;;;;5126152;27;20054;-52
2021/04/07 05:56:28;;;;;;;3.10;1.87;;;;;;;;;;5131396;27;20426;-51
2021/04/07 05:58:54;;;;;;;3.93;1.50;;;;;;;;;;5131449;27;20519;-49
2021/04/07 06:01:19;;;;;;;2.80;1.67;;;;;;;;;;5112526;27;20015;-50
2021/04/07 06:03:44;;;;;;;2.63;1.17;;;;;;;;;;5133637;27;20420;-47
2021/04/07 06:06:10;;;;;;;5.33;2.20;;;;;;;;;;5117655;27;20015;-49
2021/04/07 06:08:35;;;;;;;4.07;1.40;;;;;;;;;;5118361;27;20106;-49
2021/04/07 06:11:01;;;;;;;4.30;2.63;;;;;;;;;;5130629;27;20089;-53
2021/04/07 06:13:26;;;;;;;2.50;1.37;;;;;;;;;;5132098;27;20023;-48
2021/04/07 06:15:51;;;;;;;3.43;1.50;;;;;;;;;;5114855;27;20023;-52
2021/04/07 06:18:16;;;;;;;2.57;1.93;;;;;;;;;;5132976;27;20027;-51
2021/04/07 06:20:43;;;;;;;4.33;3.13;;;;;;;;;;5133147;27;20035;-50
2021/04/07 06:23:09;;;;;;;2.73;2.07;;;;;;;;;;5126554;27;20098;-48
2021/04/07 06:25:34;;;;;;;3.60;1.57;;;;;;;;;;5114628;28;20140;-49
2021/04/07 06:28:01;;;;;;;3.27;1.40;;;;;;;;;;5132467;27;20051;-52
2021/04/07 06:33:14;;;;;;;2.93;1.63;;;;;;;;;;5130477;27;20351;-51
2021/04/07 06:35:39;;;;;;;1.53;1.17;;;;;;;;;;5128062;27;20031;-48
2021/04/07 06:38:05;;;;;;;2.90;1.60;;;;;;;;;;5123174;28;20027;-51
2021/04/07 06:40:30;;;;;;;2.43;1.50;;;;;;;;;;5127465;27;20026;-50
2021/04/07 06:42:57;;;;;;;7.23;1.97;;;;;;;;;;5128297;27;20530;-52
2021/04/07 06:45:22;;;;;;;4.27;2.53;;;;;;;;;;5129350;27;20377;-52
2021/04/07 06:47:50;;;;;;;3.87;1.10;;;;;;;;;;5124901;27;20016;-50
2021/04/07 06:50:15;;;;;;;4.70;2.60;;;;;;;;;;5116433;28;20051;-51
2021/04/07 06:52:42;;;;;;;4.03;1.37;;;;;;;;;;5117709;27;20041;-51
2021/04/07 06:55:08;;;;;;;3.67;1.87;;;;;;;;;;5128899;27;20031;-49
2021/04/07 06:57:33;;;;;;;2.93;1.80;;;;;;;;;;5115405;28;20024;-50
2021/04/07 06:59:59;;;;;;;5.73;2.20;;;;;;;;;;5116337;27;20045;-52
2021/04/07 07:02:25;;;;;;;3.37;1.47;;;;;;;;;;5113246;28;20043;-51
2021/04/07 07:04:50;;;;;;;3.47;1.30;;;;;;;;;;5116533;27;20056;-49
2021/04/07 07:07:15;;;;;;;3.60;1.40;;;;;;;;;;5136313;27;20039;-51
2021/04/07 07:09:51;;;;;;;4.77;2.70;;;;;;;;;;5136714;27;20110;-50
2021/04/07 07:12:17;;;;;;;7.37;2.47;;;;;;;;;;5131860;27;20031;-49
2021/04/07 07:14:43;;;;;;;4.53;2.67;;;;;;;;;;5131451;27;20020;-48
2021/04/07 07:17:08;;;;;;;5.40;1.87;;;;;;;;;;5128627;27;20420;-53
2021/04/07 07:19:33;;;;;;;2.53;1.17;;;;;;;;;;5136448;27;20416;-53
2021/04/07 07:22:01;;;;;;;4.37;1.60;;;;;;;;;;5133520;27;20420;-51
2021/04/07 07:24:27;;;;;;;5.07;1.70;;;;;;;;;;5135481;27;20031;-52
2021/04/07 07:26:52;;;;;;;2.27;1.50;;;;;;;;;;5124943;27;20459;-53
2021/04/07 07:29:25;;;;;;;3.30;1.73;;;;;;;;;;5127624;27;20049;-51
2021/04/07 07:32:10;;;;;;;5.83;1.27;;;;;;;;;;5120539;27;20035;-53
2021/04/07 07:34:36;;;;;;;2.10;0.88;;;;;;;;;;5132185;27;20035;-52
2021/04/07 07:37:02;;;;;;;4.37;1.43;;;;;;;;;;5126208;27;20033;-52
2021/04/07 07:39:30;;;;;;;7.60;1.97;;;;;;;;;;5133145;27;20462;-49
2021/04/07 07:41:57;;;;;;;3.57;0.97;;;;;;;;;;5116565;27;20558;-53
2021/04/07 07:44:23;;;;;;;3.67;1.13;;;;;;;;;;5130736;27;20047;-50
2021/04/07 07:47:20;;;;;;;3.10;1.10;;;;;;;;;;5125285;27;20077;-51
2021/04/07 07:50:04;;;;;;;2.90;1.23;;;;;;;;;;5130252;27;20119;-52
2021/04/07 07:52:31;;;;;;;2.37;1.13;;;;;;;;;;5130942;27;20038;-50
2021/04/07 07:54:57;;;;;;;1.70;0.80;;;;;;;;;;5132590;27;20015;-47
2021/04/07 07:57:22;;;;;;;5.37;1.23;;;;;;;;;;5126246;28;20026;-51
2021/04/07 07:59:47;;;;;;;4.20;1.30;;;;;;;;;;5133643;27;20066;-53
2021/04/07 08:02:18;;;;;;;2.03;0.87;;;;;;;;;;5119325;27;20054;-51
2021/04/07 08:04:47;;;;;;;10.03;1.07;;;;;;;;;;5134151;27;20046;-49
2021/04/07 08:07:15;;;;;;;1.87;1.13;;;;;;;;;;5132948;27;20558;-48
2021/04/07 08:09:41;;;;;;;4.10;1.27;;;;;;;;;;5134202;27;20023;-50
2021/04/07 08:12:08;;;;;;;1.50;0.30;;;;;;;;;;5131309;27;20026;-52
2021/04/07 08:14:33;;;;;;;3.27;0.83;;;;;;;;;;5122100;27;20391;-50
2021/04/07 08:16:58;;;;;;;2.10;0.60;;;;;;;;;;5124044;28;20023;-52
2021/04/07 08:19:24;;;;;;;4.77;0.83;;;;;;;;;;5126333;27;20016;-51
2021/04/07 08:21:50;;;;;;;1.80;0.43;;;;;;;;;;5121890;28;20034;-48
2021/04/07 08:24:17;;;;;;;4.43;1.07;;;;;;;;;;5133390;27;20015;-50
2021/04/07 08:26:44;;;;;;;6.07;0.80;;;;;;;;;;5133941;27;20019;-49
2021/04/07 08:29:09;;;;;;;3.57;0.53;;;;;;;;;;5121857;27;20023;-50
2021/04/07 08:31:36;;;;;;;2.73;0.73;;;;;;;;;;5128910;27;20011;-51
2021/04/07 08:34:03;;;;;;;1.97;0.57;;;;;;;;;;5131921;27;20022;-51
2021/04/07 08:36:28;;;;;;;2.20;0.33;;;;;;;;;;5133972;27;20098;-51
2021/04/07 08:39:00;;;;;;;4.07;0.70;;;;;;;;;;5126532;27;20542;-48
2021/04/07 08:41:26;;;;;;;3.70;0.50;;;;;;;;;;5110636;28;20037;-49
2021/04/07 08:43:52;;;;;;;2.63;0.73;;;;;;;;;;5130757;28;20023;-52
2021/04/07 08:46:22;;;;;;;4.00;0.33;;;;;;;;;;5125089;28;20466;-52
2021/04/07 08:48:48;;;;;;;2.00;0.30;;;;;;;;;;5129533;28;20489;-51
2021/04/07 08:51:14;;;;;;;2.40;0.50;;;;;;;;;;5108605;27;610717;-51
2021/04/07 08:53:40;;;;;;;9.17;0.40;;;;;;;;;;5123089;27;20261;-50
2021/04/07 08:56:13;;;;;;;2.43;0.77;;;;;;;;;;5129802;27;20054;-53
2021/04/07 08:58:48;;;;;;;2.57;0.50;;;;;;;;;;5132542;27;20098;-48
2021/04/07 09:01:17;;;;;;;1.60;0.38;;;;;;;;;;5130397;27;20034;-49
2021/04/07 09:03:42;;;;;;;3.00;0.40;;;;;;;;;;5121106;27;20439;-48
2021/04/07 09:06:12;;;;;;;2.13;0.50;;;;;;;;;;5114649;27;20019;-50
2021/04/07 09:08:37;;;;;;;0.80;0.23;;;;;;;;;;5115821;27;20051;-52
2021/04/07 09:11:02;;;;;;;3.10;0.40;;;;;;;;;;5122579;27;21221;-50
2021/04/07 09:13:37;;;;;;;4.13;0.67;;;;;;;;;;5125340;27;20060;-48
2021/04/07 09:16:05;;;;;;;2.10;0.43;;;;;;;;;;5129574;27;20031;-53
2021/04/07 09:18:43;;;;;;;2.57;0.30;;;;;;;;;;5128328;27;20470;-49
2021/04/07 09:21:20;;;;;;;2.40;0.40;;;;;;;;;;5117431;27;20038;-53
2021/04/07 09:23:52;;;;;;;4.30;0.23;;;;;;;;;;5129228;27;20037;-53
2021/04/07 09:26:21;;;;;;;4.80;0.60;;;;;;;;;;5112378;27;20374;-53
2021/04/07 09:28:48;;;;;;;4.33;0.60;;;;;;;;;;5133297;27;20015;-48
2021/04/07 09:31:39;;;;;;;3.17;0.40;;;;;;;;;;5122417;27;20020;-53
2021/04/07 09:34:04;;;;;;;6.07;0.67;;;;;;;;;;5110545;27;20040;-51
2021/04/07 09:36:30;;;;;;;4.57;0.40;;;;;;;;;;5125955;27;20376;-51
2021/04/07 09:38:56;;;;;;;4.07;0.50;;;;;;;;;;5127546;27;20023;-54
2021/04/07 09:41:26;;;;;;;1.77;0.43;;;;;;;;;;5126107;27;20637;-52
2021/04/07 09:43:54;;;;;;;1.90;0.30;;;;;;;;;;5121580;27;20018;-55
2021/04/07 09:46:20;;;;;;;2.03;0.30;;;;;;;;;;5130109;27;20343;-53
2021/04/07 09:48:52;;;;;;;2.13;0.30;;;;;;;;;;5130206;27;20080;-55
2021/04/07 09:51:19;;;;;;;2.80;0.53;;;;;;;;;;5116708;27;20585;-52
2021/04/07 09:53:44;;;;;;;3.43;0.53;;;;;;;;;;5115467;27;20031;-52
2021/04/07 09:56:09;;;;;;;4.07;0.67;;;;;;;;;;5120779;27;20115;-51
2021/04/07 09:58:41;;;;;;;1.40;0.20;;;;;;;;;;5122413;27;20027;-49
2021/04/07 10:01:07;;;;;;;3.33;0.43;;;;;;;;;;5118449;27;20030;-53
2021/04/07 10:03:32;;;;;;;4.40;0.67;;;;;;;;;;5122371;27;20046;-47
2021/04/07 10:05:57;;;;;;;2.50;0.50;;;;;;;;;;5129985;27;20015;-50
2021/04/07 10:08:26;;;;;;;1.90;0.40;;;;;;;;;;5127410;27;20092;-52
2021/04/07 10:10:52;;;;;;;3.00;0.33;;;;;;;;;;5120639;27;20435;-54
2021/04/07 10:13:17;;;;;;;1.40;0.20;;;;;;;;;;5131134;27;20023;-52
2021/04/07 10:15:42;;;;;;;1.47;0.27;;;;;;;;;;5131913;27;20023;-50
2021/04/07 10:18:10;;;;;;;1.80;0.50;;;;;;;;;;5127889;27;20027;-54
2021/04/07 10:20:35;;;;;;;2.17;0.50;;;;;;;;;;5132057;27;20054;-50
2021/04/07 10:23:08;;;;;;;2.13;0.37;;;;;;;;;;5128714;27;20490;-52
2021/04/07 10:25:33;;;;;;;4.07;0.90;;;;;;;;;;5128691;27;20438;-52
2021/04/07 10:27:58;;;;;;;3.23;0.47;;;;;;;;;;5124543;27;20038;-54
2021/04/07 10:30:24;;;;;;;1.33;0.30;;;;;;;;;;5132983;27;20023;-52
2021/04/07 10:32:49;;;;;;;1.27;0.30;;;;;;;;;;5128539;27;20114;-52
2021/04/07 10:35:19;;;;;;;2.77;0.70;;;;;;;;;;5127722;28;20492;-51
2021/04/07 10:38:10;;;;;;;3.33;0.30;;;;;;;;;;5126476;27;20490;-52
2021/04/07 10:40:37;;;;;;;0.70;0.30;;;;;;;;;;5108419;28;20027;-53
2021/04/07 10:43:15;;;;;;;5.03;0.60;;;;;;;;;;5121438;28;20015;-54
2021/04/07 10:45:42;;;;;;;2.23;0.33;;;;;;;;;;5127781;28;20019;-50
2021/04/07 10:48:08;;;;;;;0.77;0.20;;;;;;;;;;5132898;27;20019;-49
2021/04/07 10:50:35;;;;;;;1.70;0.67;;;;;;;;;;5124103;27;20055;-50
2021/04/07 10:53:00;;;;;;;4.53;0.73;;;;;;;;;;5109316;28;20024;-53
2021/04/07 10:55:27;;;;;;;1.93;0.30;;;;;;;;;;5120128;28;20027;-51
2021/04/07 10:57:53;;;;;;;0.97;0.40;;;;;;;;;;5130244;27;20646;-49
2021/04/07 11:00:18;;;;;;;3.03;0.40;;;;;;;;;;5123192;28;20035;-54
2021/04/07 11:02:46;;;;;;;1.83;0.30;;;;;;;;;;5129045;27;20378;-54
2021/04/07 11:05:12;;;;;;;2.25;0.43;;;;;;;;;;5113924;27;20480;-54
2021/04/07 11:07:38;;;;;;;2.22;0.40;;;;;;;;;;5121295;28;20023;-54
2021/04/07 11:10:05;;;;;;;1.48;0.45;;;;;;;;;;5122273;28;20114;-53
2021/04/07 11:12:30;;;;;;;3.67;1.27;;;;;;;;;;5129692;27;20482;-54
2021/04/07 11:14:55;;;;;;;0.90;0.20;;;;;;;;;;5128989;27;20026;-49
2021/04/07 11:17:21;;;;;;;1.00;0.20;;;;;;;;;;5116266;28;20062;-53
2021/04/07 11:19:46;;;;;;;0.95;0.38;;;;;;;;;;5120480;28;20032;-51
2021/04/07 11:22:12;;;;;;;2.40;0.40;;;;;;;;;;5126011;28;20296;-51
2021/04/07 11:24:37;;;;;;;0.70;0.30;;;;;;;;;;5120992;28;20038;-52
2021/04/07 11:27:03;;;;;;;2.15;0.30;;;;;;;;;;5111539;28;20421;-50
2021/04/07 11:29:28;;;;;;;3.08;0.40;;;;;;;;;;5115374;28;20047;-51
2021/04/07 11:31:56;;;;;;;1.63;0.40;;;;;;;;;;5127671;28;20027;-50
2021/04/07 11:34:28;;;;;;;1.25;0.32;;;;;;;;;;5135228;27;20102;-51
2021/04/07 11:39:33;;;;;;;2.13;0.30;;;;;;;;;;5135991;27;20042;-49
2021/04/07 11:44:29;;;;;;;1.45;0.32;;;;;;;;;;5135705;27;20425;-53
2021/04/07 11:46:54;;;;;;;1.40;0.30;;;;;;;;;;5133405;27;20545;-51
2021/04/07 11:49:20;;;;;;;1.60;0.20;;;;;;;;;;5133853;27;20098;-55
2021/04/07 11:51:45;;;;;;;4.68;0.47;;;;;;;;;;5130082;27;20123;-54
2021/04/07 11:54:11;;;;;;;2.22;0.38;;;;;;;;;;5135883;27;20106;-55
2021/04/07 11:56:37;;;;;;;2.20;0.30;;;;;;;;;;5130573;27;20015;-51
2021/04/07 11:59:03;;;;;;;2.63;0.60;;;;;;;;;;5134069;27;20030;-51
2021/04/07 12:01:29;;;;;;;4.28;0.60;;;;;;;;;;5131265;27;20019;-53
2021/04/07 12:03:54;;;;;;;0.70;0.40;;;;;;;;;;5122471;27;20383;-51
2021/04/07 12:06:20;;;;;;;1.27;0.30;;;;;;;;;;5132521;27;20064;-50
2021/04/07 12:08:45;;;;;;;1.38;0.20;;;;;;;;;;5120174;27;20355;-54
2021/04/07 12:11:10;;;;;;;2.20;0.68;;;;;;;;;;5120232;27;20012;-48
2021/04/07 12:13:35;;;;;;;1.00;0.25;;;;;;;;;;5132193;27;20518;-54
2021/04/07 12:16:01;;;;;;;1.23;0.47;;;;;;;;;;5129944;27;20023;-53
2021/04/07 12:18:26;;;;;;;1.88;0.65;;;;;;;;;;5122175;27;20114;-51
2021/04/07 12:20:51;;;;;;;2.88;0.60;;;;;;;;;;5117654;27;20030;-48
2021/04/07 12:23:18;;;;;;;0.90;0.75;;;;;;;;;;5127340;27;20111;-53
2021/04/07 12:25:43;;;;;;;2.63;0.80;;;;;;;;;;5120935;27;20022;-53
2021/04/07 12:28:09;;;;;;;1.60;0.63;;;;;;;;;;5135203;27;20378;-55
2021/04/07 12:30:47;;;;;;;1.65;0.73;;;;;;;;;;5127165;27;20031;-54
2021/04/07 12:33:12;;;;;;;1.98;0.52;;;;;;;;;;5124509;27;20030;-50
2021/04/07 12:35:37;;;;;;;1.23;0.50;;;;;;;;;;5125801;27;20374;-52
2021/04/07 12:38:03;;;;;;;0.80;0.30;;;;;;;;;;5114058;28;20103;-52
2021/04/07 12:40:28;;;;;;;0.63;0.40;;;;;;;;;;5128150;27;20394;-53
2021/04/07 12:42:54;;;;;;;0.82;0.25;;;;;;;;;;5129425;27;20770;-50
2021/04/07 12:45:19;;;;;;;2.10;0.30;;;;;;;;;;5125128;27;20035;-53
2021/04/07 12:47:44;;;;;;;0.60;0.22;;;;;;;;;;5127493;27;20383;-51
2021/04/07 12:50:10;;;;;;;1.15;0.50;;;;;;;;;;5117885;27;20047;-50
2021/04/07 12:52:35;;;;;;;1.13;0.30;;;;;;;;;;5131698;27;20046;-51
2021/04/07 12:55:00;;;;;;;4.97;0.20;;;;;;;;;;5125005;27;20038;-50
2021/04/07 12:57:26;;;;;;;0.80;0.30;;;;;;;;;;5126786;27;20007;-48
2021/04/07 12:59:53;;;;;;;1.27;0.52;;;;;;;;;;5126116;27;20377;-50
2021/04/07 13:02:18;;;;;;;3.13;0.30;;;;;;;;;;5125727;27;20023;-54
2021/04/07 13:04:43;;;;;;;1.50;0.30;;;;;;;;;;5123190;27;20027;-52
2021/04/07 13:07:09;;;;;;;0.75;0.20;;;;;;;;;;5130675;27;20039;-52
2021/04/07 13:09:34;;;;;;;1.27;0.40;;;;;;;;;;5124565;27;20036;-51
2021/04/07 13:11:59;;;;;;;2.03;0.60;;;;;;;;;;5119535;27;20023;-51
2021/04/07 13:14:25;;;;;;;2.10;0.50;;;;;;;;;;5133036;27;20023;-49
2021/04/07 13:16:50;;;;;;;1.98;0.35;;;;;;;;;;5127543;27;20030;-55
2021/04/07 13:19:16;;;;;;;2.70;0.50;;;;;;;;;;5130335;27;20023;-51
2021/04/07 13:21:41;;;;;;;1.65;0.50;;;;;;;;;;5120144;27;20027;-52
2021/04/07 13:24:07;;;;;;;0.25;0.10;;;;;;;;;;5124313;27;20370;-52
2021/04/07 13:26:32;;;;;;;2.25;0.28;;;;;;;;;;5115080;27;20085;-55
2021/04/07 13:28:58;;;;;;;1.33;0.77;;;;;;;;;;5131486;27;20067;-51
2021/04/07 13:31:24;;;;;;;1.95;0.40;;;;;;;;;;5131077;27;20570;-52
2021/04/07 13:33:55;;;;;;;0.80;0.30;;;;;;;;;;5133902;27;20011;-49
2021/04/07 13:36:27;;;;;;;0.60;0.17;;;;;;;;;;5124070;27;20063;-53
2021/04/07 13:38:57;;;;;;;1.10;0.20;;;;;;;;;;5131272;27;20114;-51
2021/04/07 13:43:48;;;;;;;2.00;0.15;;;;;;;;;;5115818;27;20099;-50
2021/04/07 13:46:13;;;;;;;0.93;0.20;;;;;;;;;;5126233;27;20066;-50
2021/04/07 13:48:39;;;;;;;1.00;0.28;;;;;;;;;;5127965;27;20046;-52
2021/04/07 13:51:06;;;;;;;1.35;0.20;;;;;;;;;;5112576;27;20453;-52
2021/04/07 13:53:31;;;;;;;0.85;0.22;;;;;;;;;;5131697;27;20031;-52
2021/04/07 13:55:59;;;;;;;0.53;0.40;;;;;;;;;;5132329;27;20030;-50
2021/04/07 13:58:24;;;;;;;0.50;0.17;;;;;;;;;;5132147;27;20033;-51
2021/04/07 14:00:52;;;;;;;2.20;0.50;;;;;;;;;;5130868;27;20023;-54
2021/04/07 14:03:17;;;;;;;1.13;0.30;;;;;;;;;;5130899;27;20363;-53
2021/04/07 14:05:42;;;;;;;1.70;0.33;;;;;;;;;;5131922;27;20015;-53
2021/04/07 14:08:11;;;;;;;1.37;0.40;;;;;;;;;;5132916;27;20022;-52
2021/04/07 14:10:37;;;;;;;0.97;0.53;;;;;;;;;;5126433;27;20072;-52
2021/04/07 14:13:09;;;;;;;0.70;0.30;;;;;;;;;;5126709;27;20023;-52
2021/04/07 14:15:35;;;;;;;0.68;0.50;;;;;;;;;;5121451;27;20027;-50
2021/04/07 14:18:01;;;;;;;3.00;0.40;;;;;;;;;;5132059;27;20075;-52
2021/04/07 14:20:26;;;;;;;1.17;0.40;;;;;;;;;;5131032;27;20042;-51
2021/04/07 14:22:51;;;;;;;1.13;0.33;;;;;;;;;;5125087;27;20102;-54
2021/04/07 14:25:18;;;;;;;0.60;0.40;;;;;;;;;;5131619;27;20507;-52
2021/04/07 14:27:43;;;;;;;1.53;0.37;;;;;;;;;;5130583;27;20489;-52
2021/04/07 14:30:10;;;;;;;1.73;0.20;;;;;;;;;;5133026;27;20023;-53
2021/04/07 14:32:35;;;;;;;2.37;0.40;;;;;;;;;;5121260;27;20027;-51
2021/04/07 14:35:00;;;;;;;1.10;0.30;;;;;;;;;;5128499;28;20363;-51
2021/04/07 14:37:26;;;;;;;0.80;0.40;;;;;;;;;;5118651;28;20063;-48
2021/04/07 14:39:51;;;;;;;0.70;0.30;;;;;;;;;;5128848;28;20031;-52
2021/04/07 14:42:16;;;;;;;1.13;0.50;;;;;;;;;;5115692;27;20019;-51
2021/04/07 14:44:42;;;;;;;1.47;0.40;;;;;;;;;;5124294;28;20397;-53
2021/04/07 14:47:07;;;;;;;0.87;0.20;;;;;;;;;;5117224;28;20023;-54
2021/04/07 14:49:32;;;;;;;0.50;0.40;;;;;;;;;;5128559;27;20585;-45